Time;durP1;ratioP1;P1;durP2;ratioP2;P2;SDS_P1;SDS_P2;PMS_P1;PMS_P2;Temp;Humidity;BMP_temperature;BMP_pressure;BME280_temperature;BME280_humidity;BME280_pressure;Samples;Min_cycle;Max_cycle;Signal;HPM_P1;HPM_P2
2023/12/03 00:02:19;;;;;;;12.47;5.30;;;-0.60;99.90;;;;;;2585864;54;22085;31
2023/12/03 00:04:52;;;;;;;9.40;4.75;;;-3.20;99.90;;;;;;2585440;54;20810;31
2023/12/03 00:07:27;;;;;;;12.40;4.65;;;-3.20;99.90;;;;;;2585437;54;20807;31
2023/12/03 00:10:00;;;;;;;10.00;5.05;;;-3.20;99.90;;;;;;2585488;54;20054;31
2023/12/03 00:12:34;;;;;;;8.98;4.53;;;-3.20;99.90;;;;;;2585581;54;20896;31
2023/12/03 00:15:11;;;;;;;9.57;5.10;;;-3.20;99.90;;;;;;2585710;54;20881;31
2023/12/03 00:17:46;;;;;;;10.38;5.25;;;-3.20;99.90;;;;;;2585568;54;20030;31
2023/12/03 00:20:19;;;;;;;8.23;4.10;;;-3.20;99.90;;;;;;2604043;46;20808;31
2023/12/03 00:22:54;;;;;;;12.50;5.22;;;-3.20;99.90;;;;;;2585779;54;20032;31
2023/12/03 00:25:27;;;;;;;13.20;4.60;;;-3.20;99.90;;;;;;2585395;54;20959;31
2023/12/03 00:28:00;;;;;;;11.75;5.20;;;-3.20;99.90;;;;;;2585267;54;20119;31
2023/12/03 00:30:36;;;;;;;11.98;4.43;;;-3.20;99.90;;;;;;2585700;54;20037;31
2023/12/03 00:33:10;;;;;;;10.10;4.18;;;-3.00;99.90;;;;;;2585554;54;20030;31
2023/12/03 00:35:43;;;;;;;11.30;4.90;;;-4.50;99.90;;;;;;2603693;46;20026;31
2023/12/03 00:38:16;;;;;;;10.75;4.30;;;-3.40;99.90;;;;;;2585356;54;20053;31
2023/12/03 00:40:49;;;;;;;9.87;4.30;;;-3.10;99.90;;;;;;2585225;54;20030;31
2023/12/03 00:43:22;;;;;;;9.77;4.63;;;-3.10;99.90;;;;;;2604256;46;21144;31
2023/12/03 00:45:58;;;;;;;10.20;3.90;;;-3.10;99.90;;;;;;2585314;54;20027;31
2023/12/03 00:48:32;;;;;;;11.88;4.72;;;-3.10;99.90;;;;;;2585348;54;20037;31
2023/12/03 00:51:07;;;;;;;8.45;4.55;;;-3.10;99.90;;;;;;2604373;46;20925;31
2023/12/03 00:53:43;;;;;;;10.32;4.03;;;-3.00;99.90;;;;;;2604013;46;20152;31
2023/12/03 00:56:17;;;;;;;9.35;4.45;;;-3.00;99.90;;;;;;2585280;54;20026;31
2023/12/03 00:58:50;;;;;;;10.75;5.15;;;-3.00;99.90;;;;;;2603687;46;21863;31
2023/12/03 01:01:26;;;;;;;9.45;4.10;;;-3.00;99.90;;;;;;2585605;54;21831;31
2023/12/03 01:04:00;;;;;;;10.10;5.30;;;-3.00;99.90;;;;;;2585456;54;20887;31
2023/12/03 01:06:33;;;;;;;11.15;4.60;;;-3.60;99.90;;;;;;2585315;54;20026;31
2023/12/03 01:09:08;;;;;;;8.97;4.23;;;-2.90;99.90;;;;;;2603909;46;20327;31
2023/12/03 01:11:43;;;;;;;10.60;5.20;;;-2.90;99.90;;;;;;2585153;54;21138;31
2023/12/03 01:14:17;;;;;;;12.45;4.45;;;-2.90;99.90;;;;;;2585178;54;20049;31
2023/12/03 01:16:53;;;;;;;8.05;3.70;;;-3.10;99.90;;;;;;2603578;46;20814;31
2023/12/03 01:19:27;;;;;;;8.70;4.50;;;-2.90;99.90;;;;;;2585309;54;20835;31
2023/12/03 01:22:00;;;;;;;10.45;4.70;;;-3.60;99.90;;;;;;2585226;54;20049;31
2023/12/03 01:24:35;;;;;;;8.27;3.95;;;-2.90;99.90;;;;;;2585279;54;20987;31
2023/12/03 01:27:08;;;;;;;8.17;3.50;;;-3.00;99.90;;;;;;2585238;54;21004;31
2023/12/03 01:29:41;;;;;;;10.30;4.10;;;-3.00;99.90;;;;;;2585394;54;20031;31
2023/12/03 01:32:17;;;;;;;10.13;4.80;;;-3.00;99.90;;;;;;2585314;54;20945;31
2023/12/03 01:34:51;;;;;;;11.45;4.90;;;-2.90;99.90;;;;;;2585212;54;20951;31
2023/12/03 01:37:26;;;;;;;9.30;4.60;;;-2.90;99.90;;;;;;2584838;54;20027;31
2023/12/03 01:40:02;;;;;;;10.05;4.35;;;-4.00;99.90;;;;;;2585004;54;20033;31
2023/12/03 01:42:36;;;;;;;10.98;4.10;;;-2.90;99.90;;;;;;2585229;54;20037;31
2023/12/03 01:45:10;;;;;;;10.05;4.78;;;-2.90;99.90;;;;;;2585351;54;20037;31
2023/12/03 01:47:46;;;;;;;10.90;4.95;;;-2.90;99.90;;;;;;2585504;54;21197;31
2023/12/03 01:50:20;;;;;;;10.93;4.82;;;-2.90;99.90;;;;;;2604294;46;20983;31
2023/12/03 01:52:52;;;;;;;13.20;5.30;;;-2.80;99.90;;;;;;2604697;46;22389;31
2023/12/03 01:55:25;;;;;;;9.95;4.70;;;-2.80;99.90;;;;;;2585974;54;20031;31
2023/12/03 01:57:58;;;;;;;10.50;5.40;;;-2.90;99.90;;;;;;2585811;54;20851;31
2023/12/03 02:00:32;;;;;;;8.68;4.50;;;-2.80;99.90;;;;;;2586041;54;20054;31
2023/12/03 02:03:15;;;;;;;9.98;4.95;;;;;;;;;;2586028;54;20022;31
2023/12/03 02:05:56;;;;;;;10.52;4.32;;;-2.80;99.90;;;;;;2585743;54;20126;31
2023/12/03 02:08:32;;;;;;;10.25;4.07;;;-2.80;99.90;;;;;;2585616;54;20034;31
2023/12/03 02:11:06;;;;;;;8.48;3.80;;;-2.80;99.90;;;;;;2585621;54;20893;31
2023/12/03 02:13:40;;;;;;;10.60;5.10;;;-2.80;99.90;;;;;;2585828;54;20945;31
2023/12/03 02:16:14;;;;;;;11.05;4.63;;;-2.80;99.90;;;;;;2585953;54;20956;31
2023/12/03 02:18:47;;;;;;;9.33;4.40;;;-2.80;99.90;;;;;;2585698;54;20062;31
2023/12/03 02:21:23;;;;;;;10.30;4.60;;;-2.40;99.90;;;;;;2585844;54;20050;31
2023/12/03 02:23:59;;;;;;;11.52;4.60;;;-2.80;99.90;;;;;;2585705;54;20998;31
2023/12/03 02:26:34;;;;;;;10.05;4.75;;;-2.80;99.90;;;;;;2585787;54;20034;31
2023/12/03 02:29:07;;;;;;;7.70;4.40;;;-2.80;99.90;;;;;;2585785;54;20054;31
2023/12/03 02:31:40;;;;;;;12.47;4.97;;;-2.80;99.90;;;;;;2604477;46;20871;31
2023/12/03 02:34:14;;;;;;;10.45;4.95;;;-2.80;99.90;;;;;;2604685;46;20026;31
2023/12/03 02:36:48;;;;;;;9.50;5.00;;;-2.60;99.90;;;;;;2585660;54;20826;31
2023/12/03 02:39:23;;;;;;;11.40;5.88;;;-2.80;99.90;;;;;;2585677;54;21013;31
2023/12/03 02:41:58;;;;;;;10.95;5.00;;;-2.80;99.90;;;;;;2585814;54;20026;31
2023/12/03 02:44:31;;;;;;;8.40;4.40;;;-2.70;99.90;;;;;;2585707;54;20358;31
2023/12/03 02:47:05;;;;;;;10.88;4.70;;;-2.70;99.90;;;;;;2585825;54;20057;31
2023/12/03 02:49:40;;;;;;;12.10;5.15;;;-2.70;99.90;;;;;;2585713;54;21420;31
2023/12/03 02:52:14;;;;;;;10.55;4.65;;;-2.70;99.90;;;;;;2585614;54;20049;31
2023/12/03 02:54:50;;;;;;;13.93;5.35;;;-2.70;99.90;;;;;;2585536;54;20767;31
2023/12/03 02:57:24;;;;;;;10.90;4.47;;;-2.80;99.90;;;;;;2604487;46;20030;31
2023/12/03 02:59:57;;;;;;;10.47;5.37;;;-2.70;99.90;;;;;;2585581;54;20925;31
2023/12/03 03:02:31;;;;;;;12.95;5.68;;;-2.70;99.90;;;;;;2585755;54;20031;31
2023/12/03 03:05:04;;;;;;;9.77;4.13;;;-2.70;99.90;;;;;;2585752;54;20108;31
2023/12/03 03:07:38;;;;;;;9.00;4.60;;;-2.70;99.90;;;;;;2585588;54;20038;31
2023/12/03 03:10:15;;;;;;;10.95;4.45;;;-2.70;99.90;;;;;;2585632;54;20026;31
2023/12/03 03:12:49;;;;;;;9.80;4.47;;;-2.60;99.90;;;;;;2585555;54;20026;31
2023/12/03 03:15:22;;;;;;;9.90;4.50;;;-2.70;99.90;;;;;;2603824;46;20097;31
2023/12/03 03:17:55;;;;;;;10.38;5.15;;;-2.70;99.90;;;;;;2585783;54;21228;31
2023/12/03 03:20:28;;;;;;;15.32;4.93;;;-2.60;99.90;;;;;;2585645;54;20030;31
2023/12/03 03:23:02;;;;;;;12.10;5.05;;;-2.70;99.90;;;;;;2585806;54;20081;31
2023/12/03 03:25:38;;;;;;;16.52;5.15;;;-2.70;99.90;;;;;;2585568;54;20916;31
2023/12/03 03:28:12;;;;;;;14.67;5.80;;;-2.40;99.90;;;;;;2585656;54;20031;31
2023/12/03 03:30:45;;;;;;;13.97;5.27;;;-2.60;99.90;;;;;;2604373;46;20255;31
2023/12/03 03:33:18;;;;;;;13.05;6.32;;;-2.70;99.90;;;;;;2585626;54;20964;31
2023/12/03 03:35:51;;;;;;;15.05;6.50;;;-2.60;99.90;;;;;;2604063;46;20065;31
2023/12/03 03:38:25;;;;;;;15.45;5.53;;;-2.70;99.90;;;;;;2585753;54;20030;31
2023/12/03 03:41:01;;;;;;;11.80;5.00;;;-2.60;99.90;;;;;;2604335;46;21042;31
2023/12/03 03:43:36;;;;;;;11.10;4.60;;;-2.70;99.90;;;;;;2585718;54;20032;31
2023/12/03 03:46:12;;;;;;;15.50;5.70;;;-2.60;99.90;;;;;;2585862;54;20033;31
2023/12/03 03:48:46;;;;;;;;;;;-1.90;99.90;;;;;;2585583;54;20923;31
2023/12/03 03:51:19;;;;;;;12.95;5.80;;;-2.60;99.90;;;;;;2604492;46;20761;31
2023/12/03 03:53:52;;;;;;;13.50;5.50;;;-2.60;99.90;;;;;;2585507;54;20985;31
2023/12/03 03:56:27;;;;;;;13.60;6.30;;;-2.70;99.90;;;;;;2585533;54;20026;31
2023/12/03 03:59:02;;;;;;;15.30;5.83;;;-2.00;99.90;;;;;;2585383;54;20081;31
2023/12/03 04:01:35;;;;;;;16.10;5.43;;;-2.10;99.90;;;;;;2603705;46;21141;31
2023/12/03 04:04:09;;;;;;;14.55;5.60;;;-2.60;99.90;;;;;;2585617;54;20084;31
2023/12/03 04:06:42;;;;;;;14.10;6.88;;;-2.50;99.90;;;;;;2585235;54;20931;31
2023/12/03 04:09:15;;;;;;;16.20;6.27;;;-2.60;99.90;;;;;;2585651;54;20023;31
2023/12/03 04:11:50;;;;;;;11.60;4.70;;;-2.60;99.90;;;;;;2585590;54;20033;31
2023/12/03 04:14:25;;;;;;;18.30;7.20;;;-2.50;99.90;;;;;;2585508;54;20038;31
2023/12/03 04:17:00;;;;;;;12.97;5.87;;;-2.60;99.90;;;;;;2604236;46;22417;31
2023/12/03 04:19:34;;;;;;;14.60;6.30;;;-2.50;99.90;;;;;;2585558;54;20058;31
2023/12/03 04:22:07;;;;;;;16.17;6.28;;;-2.60;99.90;;;;;;2603813;46;20941;31
2023/12/03 04:24:42;;;;;;;15.48;7.43;;;-2.50;99.90;;;;;;2585426;54;20902;31
2023/12/03 04:27:19;;;;;;;15.50;6.88;;;-2.30;99.90;;;;;;2585144;54;20068;31
2023/12/03 04:29:52;;;;;;;17.73;7.23;;;-2.70;99.90;;;;;;2585395;54;20033;31
2023/12/03 04:32:26;;;;;;;14.10;5.93;;;-2.60;99.90;;;;;;2603947;46;20930;31
2023/12/03 04:34:56;;;;;;;12.13;5.25;;;-2.60;99.90;;;;;;2585260;54;21101;31
2023/12/03 04:37:29;;;;;;;14.45;6.30;;;-2.60;99.90;;;;;;2585548;54;20022;31
2023/12/03 04:40:04;;;;;;;15.80;6.30;;;-2.50;99.90;;;;;;2603867;46;22383;31
2023/12/03 04:42:40;;;;;;;11.40;6.20;;;-2.20;99.90;;;;;;2585587;54;20949;31
2023/12/03 04:47:42;;;;;;;16.60;6.40;;;-2.50;99.90;;;;;;2603596;46;20037;31
2023/12/03 04:50:16;;;;;;;13.27;6.32;;;-2.60;99.90;;;;;;2585629;54;20952;31
2023/12/03 04:52:49;;;;;;;11.25;4.60;;;-2.50;99.90;;;;;;2702291;39;21039;31
2023/12/03 04:55:22;;;;;;;15.88;6.18;;;-2.50;99.90;;;;;;2585333;54;20952;31
2023/12/03 04:57:57;;;;;;;12.75;5.65;;;-2.50;99.90;;;;;;2701925;39;21190;31
2023/12/03 05:00:32;;;;;;;11.73;5.43;;;-2.50;99.90;;;;;;2585271;54;20924;31
2023/12/03 05:03:05;;;;;;;16.33;6.40;;;-2.50;99.90;;;;;;2604058;46;20101;31
2023/12/03 05:05:38;;;;;;;13.80;5.60;;;-2.50;99.90;;;;;;2584996;54;20119;31
2023/12/03 05:08:11;;;;;;;14.40;6.60;;;-2.50;99.90;;;;;;2585559;54;21242;31
2023/12/03 05:10:45;;;;;;;14.90;6.45;;;-2.50;99.90;;;;;;2603962;46;20042;31
2023/12/03 05:13:21;;;;;;;13.68;5.45;;;-2.40;99.90;;;;;;2603469;46;20799;31
2023/12/03 05:15:55;;;;;;;11.67;5.33;;;-2.50;99.90;;;;;;2603575;46;20811;31
2023/12/03 05:18:28;;;;;;;14.32;5.50;;;-2.50;99.90;;;;;;2585080;54;21015;31
2023/12/03 05:21:01;;;;;;;14.63;6.45;;;-2.00;99.90;;;;;;2585037;54;20896;31
2023/12/03 05:23:34;;;;;;;11.45;5.15;;;-2.50;99.90;;;;;;2584424;54;20943;31
2023/12/03 05:26:07;;;;;;;15.55;5.90;;;-2.50;99.90;;;;;;2585313;54;20941;31
2023/12/03 05:28:44;;;;;;;13.07;5.93;;;-2.50;99.90;;;;;;2603991;46;20031;31
2023/12/03 05:31:19;;;;;;;11.17;5.70;;;-2.50;99.90;;;;;;2603884;46;20889;31
2023/12/03 05:33:52;;;;;;;17.00;6.90;;;-2.50;99.90;;;;;;2585166;54;20083;31
2023/12/03 05:36:25;;;;;;;13.20;5.95;;;-2.40;99.90;;;;;;2585269;54;21084;31
2023/12/03 05:38:58;;;;;;;12.10;6.00;;;-2.90;99.90;;;;;;2585235;54;20998;31
2023/12/03 05:41:31;;;;;;;13.63;5.57;;;-2.50;99.90;;;;;;2702168;39;22257;31
2023/12/03 05:44:07;;;;;;;15.10;5.80;;;-2.40;99.90;;;;;;2603970;47;20101;31
2023/12/03 05:46:43;;;;;;;15.30;6.85;;;-2.50;99.90;;;;;;2701777;39;21026;31
2023/12/03 05:49:16;;;;;;;13.35;6.20;;;-2.40;99.90;;;;;;2585228;54;20057;31
2023/12/03 05:51:49;;;;;;;12.50;7.10;;;-2.00;99.90;;;;;;2604034;47;20934;31
2023/12/03 05:54:22;;;;;;;13.25;6.05;;;-2.40;99.90;;;;;;2585172;54;20062;31
2023/12/03 05:56:55;;;;;;;12.57;5.63;;;-2.40;99.90;;;;;;2593054;47;20089;31
2023/12/03 05:59:30;;;;;;;13.90;6.35;;;-2.40;99.90;;;;;;2585379;54;20910;31
2023/12/03 06:02:04;;;;;;;11.43;5.63;;;-2.00;99.90;;;;;;2585104;54;21131;31
2023/12/03 06:04:37;;;;;;;12.10;5.93;;;-2.40;99.90;;;;;;2584934;54;20030;31
2023/12/03 06:07:10;;;;;;;14.35;5.70;;;-2.40;99.90;;;;;;2603886;47;21127;31
2023/12/03 06:09:43;;;;;;;15.95;5.97;;;-2.40;99.90;;;;;;2585232;54;20904;31
2023/12/03 06:12:16;;;;;;;10.00;4.75;;;-2.40;99.90;;;;;;2585077;54;20792;31
2023/12/03 06:14:52;;;;;;;13.27;5.10;;;-2.40;99.90;;;;;;2603687;47;20907;31
2023/12/03 06:17:26;;;;;;;11.47;5.70;;;-2.40;99.90;;;;;;2584909;54;20785;31
2023/12/03 06:20:01;;;;;;;13.25;5.53;;;-2.30;99.90;;;;;;2585182;54;20026;31
2023/12/03 06:22:34;;;;;;;12.25;4.95;;;-2.40;99.90;;;;;;2603810;47;20908;31
2023/12/03 06:25:08;;;;;;;10.48;5.18;;;-2.30;99.90;;;;;;2584938;54;20031;31
2023/12/03 06:27:43;;;;;;;9.32;4.68;;;-2.30;99.90;;;;;;2603334;47;20034;31
2023/12/03 06:30:19;;;;;;;13.15;6.50;;;-2.30;99.90;;;;;;2593153;47;21942;31
2023/12/03 06:32:51;;;;;;;;;;;-2.40;99.90;;;;;;2603476;47;20713;31
2023/12/03 06:35:26;;;;;;;10.18;5.10;;;-2.30;99.90;;;;;;2585403;54;20017;31
2023/12/03 06:37:59;;;;;;;11.02;5.30;;;-2.30;99.90;;;;;;2604249;46;20085;31
2023/12/03 06:40:32;;;;;;;10.05;5.30;;;-2.30;99.90;;;;;;2585872;54;20081;31
2023/12/03 06:43:06;;;;;;;13.07;5.15;;;-2.20;99.90;;;;;;2585778;54;21462;31
2023/12/03 06:45:42;;;;;;;13.70;6.55;;;-2.20;99.90;;;;;;2585572;54;20968;31
2023/12/03 06:48:14;;;;;;;12.20;6.40;;;-2.20;99.90;;;;;;2585901;54;21088;31
2023/12/03 06:50:47;;;;;;;15.43;6.50;;;-2.20;99.90;;;;;;2585751;54;20085;31
2023/12/03 06:53:20;;;;;;;16.08;6.80;;;-2.20;99.90;;;;;;2604605;46;20933;31
2023/12/03 06:55:53;;;;;;;13.43;5.95;;;-2.20;99.90;;;;;;2585761;54;20958;31
2023/12/03 06:58:27;;;;;;;11.60;5.10;;;-2.20;99.90;;;;;;2585676;54;20030;31
2023/12/03 07:01:03;;;;;;;12.30;5.90;;;-2.20;99.90;;;;;;2604365;46;20924;31
2023/12/03 07:03:37;;;;;;;11.57;6.13;;;-2.20;99.90;;;;;;2585732;54;20062;31
2023/12/03 07:06:11;;;;;;;13.03;5.37;;;-2.20;99.90;;;;;;2585669;54;21014;31
2023/12/03 07:08:44;;;;;;;12.18;5.38;;;-2.20;99.90;;;;;;2604206;46;20062;31
2023/12/03 07:11:19;;;;;;;12.80;5.73;;;-2.20;99.90;;;;;;2585967;54;20046;31
2023/12/03 07:13:52;;;;;;;14.90;6.20;;;-2.20;99.90;;;;;;2604394;46;20884;31
2023/12/03 07:16:28;;;;;;;13.17;6.10;;;-2.10;99.90;;;;;;2585672;54;20912;31
2023/12/03 07:19:02;;;;;;;14.85;5.90;;;-2.20;99.90;;;;;;2585588;54;20952;31
2023/12/03 07:21:37;;;;;;;9.45;5.47;;;-2.10;99.90;;;;;;2585733;54;20067;31
2023/12/03 07:24:11;;;;;;;11.65;5.35;;;-2.00;99.90;;;;;;2585490;54;20925;31
2023/12/03 07:26:46;;;;;;;13.40;6.30;;;-2.10;99.90;;;;;;2604004;46;22398;31
2023/12/03 07:29:21;;;;;;;13.33;5.17;;;-2.00;99.90;;;;;;2603693;46;20917;31
2023/12/03 07:31:58;;;;;;;13.13;5.45;;;-1.90;99.90;;;;;;2585928;54;20029;31
2023/12/03 07:34:32;;;;;;;9.95;5.25;;;-1.80;99.90;;;;;;2585816;54;20038;31
2023/12/03 07:37:05;;;;;;;7.45;3.95;;;-2.00;99.90;;;;;;2585695;54;20120;31
2023/12/03 07:39:39;;;;;;;12.45;5.40;;;-2.00;99.90;;;;;;2604108;46;20741;31
2023/12/03 07:42:13;;;;;;;13.65;4.25;;;-2.00;99.90;;;;;;2585621;54;20053;31
2023/12/03 07:44:49;;;;;;;11.90;4.50;;;-2.00;99.90;;;;;;2604340;46;20086;31
2023/12/03 07:47:26;;;;;;;13.95;5.90;;;-2.00;99.90;;;;;;2585271;54;20868;31
2023/12/03 07:49:59;;;;;;;12.30;4.70;;;-2.00;99.90;;;;;;2585497;54;20922;31
2023/12/03 07:52:32;;;;;;;12.00;4.60;;;-2.00;99.90;;;;;;2585696;54;20023;31
2023/12/03 07:55:07;;;;;;;11.25;5.45;;;-2.00;99.90;;;;;;2585538;54;20810;31
2023/12/03 07:57:39;;;;;;;12.32;5.72;;;-2.00;99.90;;;;;;2585810;54;20965;31
2023/12/03 08:00:13;;;;;;;11.83;4.90;;;-1.90;99.90;;;;;;2604372;46;20030;31
2023/12/03 08:02:49;;;;;;;10.55;5.00;;;-2.10;99.90;;;;;;2604140;46;20990;31
2023/12/03 08:05:23;;;;;;;14.60;5.15;;;-1.90;99.90;;;;;;2585514;54;20057;31
2023/12/03 08:07:56;;;;;;;13.63;5.30;;;-1.90;99.90;;;;;;2585380;54;20100;31
2023/12/03 08:10:29;;;;;;;11.50;5.40;;;-1.80;99.90;;;;;;2604120;46;22409;31
2023/12/03 08:13:03;;;;;;;11.17;4.50;;;-1.80;99.90;;;;;;2585604;54;20030;31
2023/12/03 08:15:37;;;;;;;9.77;5.23;;;-1.60;99.90;;;;;;2585486;54;20772;31
2023/12/03 08:18:13;;;;;;;9.95;5.10;;;-1.40;99.90;;;;;;2585844;54;21209;31
2023/12/03 08:20:47;;;;;;;13.30;5.63;;;-1.20;99.90;;;;;;2683359;39;21048;31
2023/12/03 08:23:20;;;;;;;13.20;5.37;;;-1.00;99.90;;;;;;2603801;46;20048;31
2023/12/03 08:25:54;;;;;;;14.27;6.70;;;-1.00;99.90;;;;;;2585709;54;20950;31
2023/12/03 08:28:26;;;;;;;13.70;6.68;;;-0.90;99.90;;;;;;2603937;46;22449;31
2023/12/03 08:31:00;;;;;;;15.75;6.60;;;-0.80;99.90;;;;;;2604253;46;20045;31
2023/12/03 08:33:36;;;;;;;13.45;5.85;;;-0.60;99.90;;;;;;2585136;54;20042;31
2023/12/03 08:36:10;;;;;;;12.20;5.90;;;-0.60;99.90;;;;;;2585493;54;20031;31
2023/12/03 08:38:45;;;;;;;15.07;5.82;;;-0.60;99.90;;;;;;2585434;54;20052;31
2023/12/03 08:41:19;;;;;;;13.88;6.15;;;-0.60;99.90;;;;;;2585560;54;20927;31
2023/12/03 08:43:52;;;;;;;13.93;5.82;;;-0.70;99.90;;;;;;2585345;54;20034;31
2023/12/03 08:46:30;;;;;;;13.70;6.50;;;-0.70;99.90;;;;;;2585604;54;20045;31
2023/12/03 08:49:07;;;;;;;16.20;5.95;;;-0.60;99.90;;;;;;2603927;46;20797;31
2023/12/03 08:51:40;;;;;;;14.30;5.90;;;-0.70;99.90;;;;;;2604240;46;20974;31
2023/12/03 08:54:15;;;;;;;13.30;5.85;;;-0.70;99.90;;;;;;2604390;46;20919;31
2023/12/03 08:56:48;;;;;;;15.40;5.80;;;-0.70;99.90;;;;;;2585587;54;20893;31
2023/12/03 08:59:24;;;;;;;14.15;6.45;;;-0.80;99.90;;;;;;2585481;54;20030;31
2023/12/03 09:01:58;;;;;;;11.50;5.78;;;-0.70;99.90;;;;;;2603466;46;20033;31
2023/12/03 09:04:34;;;;;;;15.53;5.87;;;-0.70;99.90;;;;;;2604071;46;22552;31
2023/12/03 09:07:09;;;;;;;14.80;6.00;;;-0.70;99.90;;;;;;2585091;54;20034;31
2023/12/03 09:09:42;;;;;;;14.03;5.57;;;-0.70;99.90;;;;;;2585604;54;20823;31
2023/12/03 09:12:17;;;;;;;14.43;5.93;;;-0.70;99.90;;;;;;2683532;39;21010;31
2023/12/03 09:14:50;;;;;;;12.07;6.07;;;-0.70;99.90;;;;;;2603719;46;20046;31
2023/12/03 09:17:24;;;;;;;14.52;7.05;;;-0.70;99.90;;;;;;2585396;54;21101;31
2023/12/03 09:20:01;;;;;;;14.88;6.65;;;-0.60;99.90;;;;;;2585135;54;20762;31
2023/12/03 09:22:35;;;;;;;14.50;6.25;;;-0.60;99.90;;;;;;2585405;54;20053;31
2023/12/03 09:25:08;;;;;;;14.25;5.80;;;-0.50;99.90;;;;;;2701999;39;21050;31
2023/12/03 09:27:42;;;;;;;13.40;6.10;;;-0.50;99.90;;;;;;2585195;54;20135;31
2023/12/03 09:30:15;;;;;;;16.70;6.40;;;-0.50;99.90;;;;;;2603834;46;20026;31
2023/12/03 09:32:50;;;;;;;12.80;6.40;;;-0.50;99.90;;;;;;2585355;54;20030;31
2023/12/03 09:35:29;;;;;;;12.63;5.87;;;-0.50;99.90;;;;;;2585403;54;20069;31
2023/12/03 09:38:01;;;;;;;14.85;6.45;;;-0.50;99.90;;;;;;2701419;39;22628;31
2023/12/03 09:40:34;;;;;;;15.17;6.23;;;-0.40;99.90;;;;;;2603081;46;20908;31
2023/12/03 09:43:09;;;;;;;15.35;6.53;;;-0.40;99.90;;;;;;2603546;46;20117;31
2023/12/03 09:45:45;;;;;;;13.13;6.47;;;-0.20;99.90;;;;;;2585094;54;20026;31
2023/12/03 09:48:19;;;;;;;11.55;5.75;;;-0.10;99.90;;;;;;2584900;54;20149;31
2023/12/03 09:51:00;;;;;;;12.15;5.60;;;0.00;99.90;;;;;;2585039;54;20026;31
2023/12/03 09:53:37;;;;;;;10.02;5.05;;;0.20;99.90;;;;;;2584947;54;20983;31
2023/12/03 09:56:12;;;;;;;13.55;5.35;;;0.40;99.90;;;;;;2603356;47;20813;31
2023/12/03 09:58:46;;;;;;;13.20;5.23;;;0.60;99.90;;;;;;2584936;54;21930;31
2023/12/03 10:01:20;;;;;;;15.20;6.00;;;0.80;99.90;;;;;;2585134;54;20050;31
2023/12/03 10:03:55;;;;;;;12.50;5.75;;;0.90;99.90;;;;;;2584831;54;20033;31
2023/12/03 10:06:32;;;;;;;11.23;5.47;;;1.00;99.90;;;;;;2682935;39;21448;31
2023/12/03 10:09:08;;;;;;;11.03;6.17;;;1.10;99.90;;;;;;2585341;54;20895;31
2023/12/03 10:11:44;;;;;;;10.65;5.25;;;1.10;99.90;;;;;;2604412;46;20182;31
2023/12/03 10:14:17;;;;;;;12.83;5.83;;;1.20;99.90;;;;;;2604203;46;19969;31
2023/12/03 10:16:52;;;;;;;11.00;6.00;;;1.20;99.90;;;;;;2604163;46;20871;31
2023/12/03 10:19:30;;;;;;;10.60;5.60;;;1.20;99.90;;;;;;2585820;54;20057;31
2023/12/03 10:22:07;;;;;;;10.93;5.10;;;1.20;99.90;;;;;;2702664;39;21057;31
2023/12/03 10:24:50;;;;;;;9.95;5.00;;;1.30;99.90;;;;;;2585896;54;20038;31
2023/12/03 10:27:33;;;;;;;12.50;5.00;;;1.20;99.90;;;;;;2586171;54;21143;31
2023/12/03 10:30:11;;;;;;;9.88;5.30;;;1.30;99.90;;;;;;2585894;54;20958;31
2023/12/03 10:32:49;;;;;;;16.23;5.50;;;1.40;99.90;;;;;;2604362;46;21171;31
2023/12/03 10:35:24;;;;;;;8.57;5.05;;;1.40;99.90;;;;;;2702158;39;22593;31
2023/12/03 10:38:08;;;;;;;10.85;6.07;;;1.40;99.90;;;;;;2604296;46;20026;31
2023/12/03 10:40:42;;;;;;;11.97;5.53;;;1.30;99.90;;;;;;2585663;54;20914;31
2023/12/03 10:43:21;;;;;;;11.30;5.40;;;1.30;99.90;;;;;;2604203;46;20089;31
2023/12/03 10:45:59;;;;;;;13.80;6.30;;;1.40;99.90;;;;;;2585586;54;20093;31
2023/12/03 10:48:41;;;;;;;12.03;6.23;;;1.40;99.90;;;;;;2585825;54;20802;31
2023/12/03 10:51:18;;;;;;;15.00;6.22;;;1.30;99.90;;;;;;2604099;46;20903;31
2023/12/03 10:53:58;;;;;;;12.73;5.87;;;1.20;99.90;;;;;;2586005;54;20965;31
2023/12/03 10:56:39;;;;;;;13.73;5.90;;;1.10;99.90;;;;;;2684027;39;21007;31
2023/12/03 10:59:25;;;;;;;12.80;5.07;;;1.10;99.90;;;;;;2604551;46;20072;31
2023/12/03 11:02:02;;;;;;;10.68;5.50;;;0.90;99.90;;;;;;2585575;54;20026;31
2023/12/03 11:04:41;;;;;;;14.43;5.87;;;0.90;99.90;;;;;;2586084;54;19935;31
2023/12/03 11:07:18;;;;;;;13.40;6.55;;;0.70;99.90;;;;;;2585865;54;20934;31
2023/12/03 11:09:58;;;;;;;10.82;6.45;;;0.70;99.90;;;;;;2585873;54;20954;31
2023/12/03 11:12:32;;;;;;;14.55;6.25;;;0.60;99.90;;;;;;2585545;54;20802;31
2023/12/03 11:15:09;;;;;;;14.75;7.30;;;0.50;99.90;;;;;;2585728;54;20863;31
2023/12/03 11:17:44;;;;;;;16.47;7.27;;;0.40;99.90;;;;;;2585588;54;20041;31
2023/12/03 11:20:20;;;;;;;15.82;7.95;;;0.40;99.90;;;;;;2585495;54;20034;31
2023/12/03 11:23:01;;;;;;;12.65;6.25;;;0.30;99.90;;;;;;2604566;46;21142;31
2023/12/03 11:25:37;;;;;;;15.35;7.40;;;0.30;99.90;;;;;;2585853;54;22486;31
2023/12/03 11:28:10;;;;;;;14.35;7.50;;;0.20;99.90;;;;;;2604421;46;21915;31
2023/12/03 11:30:48;;;;;;;16.03;7.13;;;0.10;99.90;;;;;;2604159;46;19947;31
2023/12/03 11:33:24;;;;;;;15.47;7.77;;;0.10;99.90;;;;;;2585702;54;20053;31
2023/12/03 11:36:01;;;;;;;15.10;6.88;;;0.10;99.90;;;;;;2603723;46;20086;31
2023/12/03 11:38:34;;;;;;;;;;;0.10;99.90;;;;;;2586080;54;20054;31
2023/12/03 11:41:13;;;;;;;15.80;6.80;;;0.20;99.90;;;;;;2604127;46;20822;31
2023/12/03 11:43:48;;;;;;;16.80;7.53;;;0.20;99.90;;;;;;2585642;54;20036;31
2023/12/03 11:46:24;;;;;;;17.60;7.80;;;0.20;99.90;;;;;;2585764;54;20080;31
2023/12/03 11:48:59;;;;;;;14.27;6.63;;;0.20;99.90;;;;;;2585467;54;20022;31
2023/12/03 11:51:35;;;;;;;16.05;8.13;;;0.30;99.90;;;;;;2585480;54;20085;31
2023/12/03 11:54:09;;;;;;;17.70;8.23;;;0.20;99.90;;;;;;2585689;54;20033;31
2023/12/03 11:56:47;;;;;;;15.67;7.77;;;0.20;99.90;;;;;;2585465;54;20821;31
2023/12/03 11:59:22;;;;;;;14.80;7.60;;;0.20;99.90;;;;;;2604244;46;20053;31
2023/12/03 12:01:57;;;;;;;13.00;6.90;;;0.20;99.90;;;;;;2585413;54;20065;31
2023/12/03 12:04:31;;;;;;;12.57;6.60;;;0.20;99.90;;;;;;2585474;54;20031;31
2023/12/03 12:07:03;;;;;;;15.97;7.10;;;0.10;99.90;;;;;;2585414;54;20023;31
2023/12/03 12:09:40;;;;;;;15.55;6.60;;;0.10;99.90;;;;;;2603117;46;21259;31
2023/12/03 12:12:20;;;;;;;16.35;8.23;;;0.10;99.90;;;;;;2585345;54;20786;31
2023/12/03 12:14:55;;;;;;;17.77;8.25;;;0.10;99.90;;;;;;2604255;46;20971;31
2023/12/03 12:17:33;;;;;;;17.87;8.40;;;0.10;99.90;;;;;;2584462;54;20037;31
2023/12/03 12:20:09;;;;;;;16.17;7.60;;;0.10;99.90;;;;;;2585396;54;20231;31
2023/12/03 12:22:55;;;;;;;19.33;8.20;;;0.10;99.90;;;;;;2585458;54;20097;31
2023/12/03 12:25:29;;;;;;;21.30;9.02;;;0.10;99.90;;;;;;2585814;54;20022;31
2023/12/03 12:28:12;;;;;;;16.50;8.33;;;0.10;99.90;;;;;;2585455;54;20061;31
2023/12/03 12:30:46;;;;;;;19.65;9.35;;;0.10;99.90;;;;;;2585171;54;21123;31
2023/12/03 12:33:23;;;;;;;18.45;9.15;;;0.10;99.90;;;;;;2584419;54;20920;31
2023/12/03 12:36:03;;;;;;;20.15;9.25;;;0.10;99.90;;;;;;2585457;54;20042;31
2023/12/03 12:38:44;;;;;;;18.05;8.15;;;0.10;99.90;;;;;;2585359;54;20746;31
2023/12/03 12:41:21;;;;;;;14.15;6.25;;;0.10;99.90;;;;;;2585431;54;20026;31
2023/12/03 12:44:02;;;;;;;;;;;0.10;99.90;;;;;;2585815;54;20943;31
2023/12/03 12:46:38;;;;;;;13.20;6.03;;;0.10;99.90;;;;;;2585618;54;19961;31
2023/12/03 12:49:20;;;;;;;15.05;6.80;;;0.10;99.90;;;;;;2585625;54;20932;31
2023/12/03 12:51:53;;;;;;;13.40;6.20;;;0.10;99.90;;;;;;2584847;54;20969;31
2023/12/03 12:54:28;;;;;;;12.45;6.25;;;0.10;99.90;;;;;;2585438;54;20026;31
2023/12/03 12:57:03;;;;;;;16.00;6.77;;;0.10;99.90;;;;;;2585222;54;21071;31
2023/12/03 12:59:44;;;;;;;14.35;6.70;;;0.10;99.90;;;;;;2585424;54;21012;31
2023/12/03 13:02:20;;;;;;;13.88;6.97;;;0.00;99.90;;;;;;2585181;54;20811;31
2023/12/03 13:04:55;;;;;;;14.50;6.97;;;0.00;99.90;;;;;;2585489;54;20085;31
2023/12/03 13:07:34;;;;;;;17.80;8.25;;;0.00;99.90;;;;;;2585253;54;20321;31
2023/12/03 13:10:12;;;;;;;16.90;7.70;;;0.00;99.90;;;;;;2585229;54;20899;31
2023/12/03 13:12:46;;;;;;;17.50;8.25;;;0.00;99.90;;;;;;2585212;54;20059;31
2023/12/03 13:15:24;;;;;;;19.10;8.15;;;0.00;99.90;;;;;;2585501;54;20064;31
2023/12/03 13:17:59;;;;;;;15.45;7.65;;;0.10;99.90;;;;;;2585172;54;20975;31
2023/12/03 13:20:49;;;;;;;19.00;8.70;;;0.10;99.90;;;;;;2604241;46;20944;31
2023/12/03 13:23:23;;;;;;;19.20;8.10;;;0.10;99.90;;;;;;2603233;46;20993;31
2023/12/03 13:25:57;;;;;;;20.00;9.20;;;0.10;99.90;;;;;;2585223;54;20031;31
2023/12/03 13:28:30;;;;;;;19.20;9.57;;;0.10;99.90;;;;;;2585570;54;20063;31
2023/12/03 13:31:06;;;;;;;17.10;8.30;;;0.10;99.90;;;;;;2585382;54;20030;31
2023/12/03 13:33:39;;;;;;;;;;;0.10;99.90;;;;;;2585514;54;20980;31
2023/12/03 13:36:14;;;;;;;17.95;7.22;;;0.10;99.90;;;;;;2585268;54;20000;31